createdAt,value
2023-04-07T00:03:29.807Z,24.07
2023-04-07T00:13:36.411Z,24.16
2023-04-07T00:23:43.214Z,24.11
2023-04-07T00:33:49.247Z,24.04
2023-04-07T00:43:55.441Z,24.01
2023-04-07T00:54:01.970Z,23.99
2023-04-07T01:04:08.861Z,23.94
2023-04-07T01:14:15.362Z,23.91
2023-04-07T01:24:22.412Z,23.88
2023-04-07T01:34:29.123Z,23.84
2023-04-07T01:44:37.142Z,23.85
2023-04-07T01:54:43.886Z,23.83
2023-04-07T02:04:50.358Z,23.84
2023-04-07T02:14:56.885Z,23.80
2023-04-07T02:25:03.707Z,23.78
2023-04-07T02:35:10.155Z,23.76
2023-04-07T02:45:16.877Z,23.75
2023-04-07T02:55:23.867Z,23.74
2023-04-07T03:05:30.403Z,23.73
2023-04-07T03:15:37.486Z,23.71
2023-04-07T03:25:45.403Z,23.72
2023-04-07T03:35:53.133Z,23.70
2023-04-07T03:45:59.499Z,23.70
2023-04-07T03:56:06.797Z,23.69
2023-04-07T04:06:13.719Z,23.69
2023-04-07T04:16:20.624Z,23.68
2023-04-07T04:26:27.621Z,23.68
2023-04-07T04:36:36.145Z,23.69
2023-04-07T04:46:44.339Z,23.67
2023-04-07T04:56:51.754Z,23.64
2023-04-07T05:06:58.842Z,23.66
2023-04-07T05:17:05.196Z,23.65
2023-04-07T05:27:11.835Z,23.64
2023-04-07T05:37:19.047Z,23.62
2023-04-07T05:47:26.254Z,23.59
2023-04-07T05:57:33.103Z,23.60
2023-04-07T06:07:40.396Z,23.60
2023-04-07T06:17:47.352Z,23.58
2023-04-07T06:29:13.712Z,23.58
2023-04-07T06:39:20.002Z,23.58
2023-04-07T06:49:26.500Z,23.57
2023-04-07T06:59:33.740Z,23.57
2023-04-07T07:09:40.785Z,23.57
2023-04-07T07:19:47.557Z,23.57
2023-04-07T07:29:54.450Z,23.56
2023-04-07T07:40:00.663Z,23.58
2023-04-07T07:50:06.701Z,23.57
2023-04-07T08:00:12.961Z,23.57
2023-04-07T08:10:19.967Z,23.58
2023-04-07T08:20:26.222Z,23.57
2023-04-07T08:30:32.509Z,23.57
2023-04-07T08:40:38.787Z,23.63
2023-04-07T08:50:45.127Z,23.88
2023-04-07T09:00:51.873Z,23.98
2023-04-07T09:10:58.362Z,24.03
2023-04-07T09:21:04.842Z,24.06
2023-04-07T09:31:12.120Z,24.10
2023-04-07T09:41:18.332Z,24.11
2023-04-07T09:51:25.273Z,24.16
2023-04-07T10:01:32.303Z,24.20
2023-04-07T10:11:38.875Z,24.22
2023-04-07T10:21:48.374Z,24.25
2023-04-07T10:31:55.242Z,24.26
2023-04-07T10:42:02.406Z,24.31
2023-04-07T10:52:08.567Z,24.28
2023-04-07T11:02:14.817Z,24.32
2023-04-07T11:12:21.614Z,24.36
2023-04-07T11:22:30.426Z,24.37
2023-04-07T11:32:37.289Z,24.33
2023-04-07T11:42:43.725Z,24.37
2023-04-07T11:52:50.047Z,24.30
2023-04-07T12:02:57.395Z,24.30
2023-04-07T12:13:03.655Z,24.31
2023-04-07T12:23:10.072Z,24.44
2023-04-07T12:33:16.994Z,24.41
2023-04-07T12:43:24.273Z,24.34
2023-04-07T12:53:31.507Z,24.31
2023-04-07T13:03:38.211Z,24.39
2023-04-07T13:13:45.093Z,24.39
2023-04-07T13:23:52.327Z,24.35
2023-04-07T13:33:59.200Z,24.36
2023-04-07T13:44:06.276Z,24.38
2023-04-07T13:54:13.619Z,24.42
2023-04-07T14:04:20.595Z,24.39
2023-04-07T14:14:27.848Z,24.41
2023-04-07T14:24:34.973Z,24.51
2023-04-07T14:34:42.422Z,24.51
2023-04-07T14:44:48.785Z,24.47
2023-04-07T14:54:56.633Z,24.42
2023-04-07T15:05:05.279Z,24.44
2023-04-07T15:15:12.997Z,24.45
2023-04-07T15:25:19.907Z,24.51
2023-04-07T15:35:27.289Z,24.51
2023-04-07T15:45:34.474Z,24.57
2023-04-07T15:55:41.681Z,24.57
2023-04-07T16:05:49.328Z,24.58
2023-04-07T16:15:56.635Z,24.50
2023-04-07T16:26:03.632Z,24.51
2023-04-07T16:36:11.034Z,24.59
2023-04-07T16:46:17.947Z,24.51
2023-04-07T16:56:25.145Z,24.48
2023-04-07T17:06:32.452Z,24.54
2023-04-07T17:16:39.909Z,24.55
2023-04-07T17:26:48.051Z,24.46
2023-04-07T17:36:54.675Z,24.42
2023-04-07T17:47:01.738Z,24.51
2023-04-07T17:57:09.050Z,24.52
2023-04-07T18:07:15.991Z,24.58
2023-04-07T18:17:23.149Z,24.58
2023-04-07T18:27:29.826Z,24.55
2023-04-07T18:37:36.011Z,24.54
2023-04-07T18:47:42.822Z,24.47
2023-04-07T18:57:49.528Z,24.52
2023-04-07T19:07:55.990Z,24.52
2023-04-07T19:18:02.524Z,24.52
2023-04-07T19:28:09.921Z,24.48
2023-04-07T19:38:16.064Z,24.50
2023-04-07T19:48:22.543Z,24.51
2023-04-07T19:58:28.913Z,24.53
2023-04-07T20:08:35.106Z,24.42
2023-04-07T20:18:41.439Z,24.27
2023-04-07T20:28:47.952Z,24.27
2023-04-07T20:38:54.357Z,24.33
2023-04-07T20:49:00.713Z,24.33
2023-04-07T20:59:06.834Z,24.24
2023-04-07T21:09:12.767Z,24.25
2023-04-07T21:19:18.658Z,24.29
2023-04-07T21:29:25.195Z,24.30
2023-04-07T21:39:31.628Z,24.29
2023-04-07T21:49:38.533Z,24.33
2023-04-07T21:59:44.930Z,24.37
2023-04-07T22:09:50.927Z,24.46
2023-04-07T22:19:57.126Z,24.47
2023-04-07T22:30:02.861Z,24.44
2023-04-07T22:40:09.220Z,24.39
2023-04-07T22:50:16.559Z,24.48
2023-04-07T23:00:23.433Z,24.50
2023-04-07T23:10:30.420Z,24.56
2023-04-07T23:20:36.785Z,24.42
2023-04-07T23:30:42.661Z,24.41
2023-04-07T23:40:52.035Z,24.50
2023-04-07T23:50:58.338Z,24.52
